Time;durP1;ratioP1;P1;durP2;ratioP2;P2;SDS_P1;SDS_P2;PMS_P1;PMS_P2;Temp;Humidity;BMP_temperature;BMP_pressure;BME280_temperature;BME280_humidity;BME280_pressure;Samples;Min_cycle;Max_cycle;Signal;HPM_P1;HPM_P2
2022/07/04 00:00:07;;;;;;;2.80;1.50;;;17.50;69.60;;;;;;5092764;28;20024;-39
2022/07/04 00:02:33;;;;;;;2.60;1.33;;;17.50;69.70;;;;;;5092748;28;20055;-39
2022/07/04 00:04:59;;;;;;;2.30;1.27;;;17.50;69.70;;;;;;5092731;28;20491;-39
2022/07/04 00:07:25;;;;;;;5.95;1.40;;;17.40;69.80;;;;;;5096625;28;20400;-38
2022/07/04 00:09:50;;;;;;;1.73;1.20;;;17.40;69.90;;;;;;5096616;28;20119;-38
2022/07/04 00:12:16;;;;;;;2.28;1.35;;;17.40;70.00;;;;;;5096602;28;20085;-38
2022/07/04 00:14:42;;;;;;;3.22;1.33;;;17.40;70.00;;;;;;5096970;28;20017;-38
2022/07/04 00:17:07;;;;;;;1.95;1.30;;;17.30;70.10;;;;;;5096435;28;20392;-40
2022/07/04 00:19:34;;;;;;;3.20;1.35;;;17.30;70.20;;;;;;5096678;28;20531;-39
2022/07/04 00:21:59;;;;;;;3.53;1.50;;;17.20;70.20;;;;;;5096627;28;20121;-39
2022/07/04 00:24:25;;;;;;;4.72;1.45;;;17.20;70.30;;;;;;5096779;28;20068;-39
2022/07/04 00:26:50;;;;;;;4.45;1.30;;;17.20;70.30;;;;;;5096715;28;20028;-39
2022/07/04 00:29:16;;;;;;;1.63;0.90;;;17.20;70.30;;;;;;5096197;28;20023;-40
2022/07/04 00:31:42;;;;;;;3.25;1.35;;;17.20;70.40;;;;;;5096188;28;20024;-40
2022/07/04 00:34:07;;;;;;;2.72;0.95;;;17.10;70.30;;;;;;5096074;28;20028;-43
2022/07/04 00:36:33;;;;;;;2.50;1.15;;;17.10;70.30;;;;;;5096136;28;20021;-39
2022/07/04 00:38:59;;;;;;;3.53;1.13;;;17.10;70.30;;;;;;5096034;28;20023;-37
2022/07/04 00:41:24;;;;;;;3.08;1.17;;;17.10;70.40;;;;;;5096070;28;20040;-38
2022/07/04 00:44:07;;;;;;;1.42;1.20;;;17.10;70.40;;;;;;5094893;28;20468;-38
2022/07/04 00:46:34;;;;;;;3.42;1.05;;;17.00;70.60;;;;;;5096048;28;20031;-38
2022/07/04 00:48:59;;;;;;;3.22;1.20;;;17.00;70.50;;;;;;5095816;28;20529;-38
2022/07/04 00:51:26;;;;;;;2.45;1.10;;;17.00;70.60;;;;;;5095806;28;20020;-38
2022/07/04 00:53:55;;;;;;;2.75;0.90;;;17.00;70.70;;;;;;5095731;28;20024;-37
2022/07/04 00:56:22;;;;;;;4.00;1.23;;;17.00;70.80;;;;;;5096198;28;20024;-38
2022/07/04 00:58:48;;;;;;;2.22;1.08;;;17.00;70.80;;;;;;5095831;28;20024;-39
2022/07/04 01:01:14;;;;;;;2.55;1.30;;;16.90;70.70;;;;;;5095869;28;20024;-38
2022/07/04 01:03:40;;;;;;;2.78;1.20;;;16.90;70.80;;;;;;5095813;28;20024;-39
2022/07/04 01:06:10;;;;;;;3.70;1.20;;;16.90;70.90;;;;;;5095802;28;20024;-38
2022/07/04 01:08:37;;;;;;;3.67;1.30;;;16.90;70.90;;;;;;5095702;28;20150;-38
2022/07/04 01:11:03;;;;;;;2.03;1.00;;;16.90;71.00;;;;;;5095431;28;20475;-39
2022/07/04 01:13:29;;;;;;;3.85;1.60;;;16.90;71.10;;;;;;5095529;28;20024;-39
2022/07/04 01:15:55;;;;;;;5.47;1.00;;;16.80;71.10;;;;;;5095277;28;20027;-38
2022/07/04 01:18:21;;;;;;;3.83;1.40;;;16.80;71.10;;;;;;5094347;28;20483;-39
2022/07/04 01:20:46;;;;;;;1.65;1.10;;;16.80;71.20;;;;;;5095858;28;20024;-40
2022/07/04 01:23:12;;;;;;;3.20;1.25;;;16.80;71.30;;;;;;5095507;28;20016;-39
2022/07/04 01:25:37;;;;;;;2.33;1.17;;;16.80;71.30;;;;;;5095245;28;20027;-39
2022/07/04 01:28:03;;;;;;;2.08;1.15;;;16.80;71.40;;;;;;5093558;28;20016;-38
2022/07/04 01:30:30;;;;;;;2.33;1.20;;;16.80;71.40;;;;;;5094762;28;20051;-39
2022/07/04 01:32:56;;;;;;;2.08;1.20;;;16.80;71.60;;;;;;5094688;28;20024;-39
2022/07/04 01:35:23;;;;;;;1.65;1.17;;;16.70;71.60;;;;;;5095243;28;20486;-39
2022/07/04 01:37:49;;;;;;;1.77;1.33;;;16.70;71.70;;;;;;5094700;28;20023;-39
2022/07/04 01:40:15;;;;;;;4.03;1.27;;;16.70;71.80;;;;;;5094837;28;20503;-37
2022/07/04 01:42:41;;;;;;;5.85;1.20;;;16.70;71.90;;;;;;5094582;28;20032;-38
2022/07/04 01:45:09;;;;;;;1.95;1.20;;;16.70;72.00;;;;;;5094684;28;20028;-38
2022/07/04 01:47:35;;;;;;;4.63;1.58;;;16.60;72.10;;;;;;5094534;28;20012;-40
2022/07/04 01:50:01;;;;;;;3.17;1.20;;;16.60;72.20;;;;;;5094654;28;20028;-38
2022/07/04 01:52:27;;;;;;;2.17;1.38;;;16.60;72.20;;;;;;5094592;28;20091;-39
2022/07/04 01:54:53;;;;;;;3.13;1.20;;;16.60;72.30;;;;;;5094443;28;20485;-38
2022/07/04 01:57:18;;;;;;;4.50;1.45;;;16.60;72.40;;;;;;5094319;28;20581;-39
2022/07/04 02:02:28;;;;;;;3.75;1.33;;;16.50;72.60;;;;;;5094543;28;20032;-39
2022/07/04 02:04:55;;;;;;;3.58;1.63;;;16.50;72.70;;;;;;5094310;28;20032;-40
2022/07/04 02:07:20;;;;;;;3.50;1.35;;;16.50;72.80;;;;;;5094141;28;20027;-39
2022/07/04 02:09:46;;;;;;;2.58;1.55;;;16.50;73.00;;;;;;5094354;28;20383;-39
2022/07/04 02:14:56;;;;;;;2.05;1.30;;;16.40;73.20;;;;;;5094162;28;20119;-41
2022/07/04 02:17:22;;;;;;;3.25;1.50;;;16.40;73.30;;;;;;5093878;28;20048;-50
2022/07/04 02:19:47;;;;;;;4.03;1.50;;;16.40;73.50;;;;;;5093954;28;20027;-39
2022/07/04 02:22:14;;;;;;;3.70;1.60;;;16.40;73.60;;;;;;5093756;28;20034;-38
2022/07/04 02:24:40;;;;;;;1.85;1.40;;;16.40;73.60;;;;;;5093590;28;20073;-39
2022/07/04 02:27:07;;;;;;;3.53;1.27;;;16.40;73.80;;;;;;5093612;28;20035;-37
2022/07/04 02:29:32;;;;;;;2.92;1.65;;;16.40;73.80;;;;;;5093393;28;20023;-38
2022/07/04 02:31:58;;;;;;;4.78;1.50;;;16.30;73.80;;;;;;5093626;28;20020;-38
2022/07/04 02:34:23;;;;;;;2.70;1.70;;;16.30;73.80;;;;;;5093602;28;20028;-40
2022/07/04 02:36:50;;;;;;;2.92;1.40;;;16.30;74.40;;;;;;5093532;28;20498;-38
2022/07/04 02:39:15;;;;;;;3.75;1.50;;;16.30;73.80;;;;;;5093463;28;20027;-38
2022/07/04 02:41:41;;;;;;;2.60;1.30;;;16.30;73.80;;;;;;5093745;28;20048;-39
2022/07/04 02:44:07;;;;;;;2.28;1.30;;;16.20;73.80;;;;;;5093553;28;20016;-38
2022/07/04 02:46:33;;;;;;;3.28;1.60;;;16.20;73.80;;;;;;5093567;28;20026;-40
2022/07/04 02:48:59;;;;;;;2.90;1.73;;;16.10;73.80;;;;;;5093326;28;20020;-38
2022/07/04 02:51:25;;;;;;;1.77;1.40;;;16.10;73.90;;;;;;5093369;28;20360;-38
2022/07/04 02:53:51;;;;;;;2.45;1.60;;;16.00;74.00;;;;;;5093274;28;20099;-40
2022/07/04 02:56:16;;;;;;;3.42;1.50;;;16.00;74.10;;;;;;5091911;28;20024;-40
2022/07/04 02:58:42;;;;;;;3.63;1.42;;;16.00;74.10;;;;;;5093343;28;20028;-40
2022/07/04 03:01:08;;;;;;;2.05;1.52;;;16.00;74.20;;;;;;5093163;28;20016;-38
2022/07/04 03:03:33;;;;;;;4.70;1.73;;;16.00;74.30;;;;;;5093323;28;20493;-37
2022/07/04 03:05:59;;;;;;;5.20;2.00;;;16.00;74.40;;;;;;5093078;28;20060;-38
2022/07/04 03:08:25;;;;;;;2.60;1.70;;;16.00;74.50;;;;;;5093189;28;20080;-38
2022/07/04 03:10:51;;;;;;;2.58;1.80;;;15.90;74.40;;;;;;5093169;28;20027;-38
2022/07/04 03:13:17;;;;;;;3.70;2.10;;;15.90;74.50;;;;;;5093287;28;20479;-38
2022/07/04 03:15:43;;;;;;;5.18;2.17;;;15.90;74.60;;;;;;5093598;28;20016;-40
2022/07/04 03:18:08;;;;;;;7.00;2.35;;;15.90;74.80;;;;;;5092895;28;20072;-39
2022/07/04 03:20:34;;;;;;;4.20;2.10;;;15.90;74.70;;;;;;5091740;28;20032;-38
2022/07/04 03:22:59;;;;;;;5.32;2.60;;;15.90;74.80;;;;;;5093102;28;20024;-38
2022/07/04 03:25:25;;;;;;;3.95;2.90;;;15.90;74.90;;;;;;5093053;28;20434;-38
2022/07/04 03:27:50;;;;;;;4.32;2.33;;;15.90;74.90;;;;;;5092919;28;20020;-39
2022/07/04 03:30:16;;;;;;;4.55;2.90;;;15.90;75.00;;;;;;5092752;28;20069;-38
2022/07/04 03:32:41;;;;;;;5.55;2.50;;;15.90;75.10;;;;;;5092721;28;20024;-39
2022/07/04 03:35:07;;;;;;;5.68;2.83;;;15.90;75.10;;;;;;5092737;28;20095;-39
2022/07/04 03:37:33;;;;;;;5.38;3.00;;;15.90;75.20;;;;;;5092949;28;20043;-39
2022/07/04 03:39:58;;;;;;;5.25;3.08;;;15.90;75.30;;;;;;5093157;28;20339;-40
2022/07/04 03:42:24;;;;;;;3.67;2.38;;;15.90;75.40;;;;;;5096787;28;20059;-38
2022/07/04 03:44:49;;;;;;;4.47;2.83;;;15.90;75.50;;;;;;5096773;28;20028;-39
2022/07/04 03:47:15;;;;;;;3.63;2.90;;;15.90;75.50;;;;;;5096776;28;20119;-38
2022/07/04 03:49:41;;;;;;;5.88;2.95;;;15.90;75.50;;;;;;5096815;28;20017;-39
2022/07/04 03:52:07;;;;;;;5.93;3.20;;;15.90;75.50;;;;;;5096968;28;20023;-39
2022/07/04 03:54:32;;;;;;;4.80;3.20;;;15.90;75.50;;;;;;5096776;28;20028;-38
2022/07/04 03:56:58;;;;;;;4.78;3.22;;;15.90;75.50;;;;;;5096740;28;20020;-37
2022/07/04 03:59:23;;;;;;;4.47;3.30;;;15.90;75.60;;;;;;5096825;28;20024;-39
2022/07/04 04:01:49;;;;;;;6.07;3.65;;;16.00;75.60;;;;;;5096325;28;20472;-39
2022/07/04 04:06:58;;;;;;;5.13;3.75;;;16.00;75.60;;;;;;5096609;28;20031;-39
2022/07/04 04:09:24;;;;;;;5.75;3.95;;;16.10;75.60;;;;;;5096396;28;20028;-39
2022/07/04 04:11:50;;;;;;;5.15;3.60;;;16.10;75.70;;;;;;5096567;28;20016;-38
2022/07/04 04:14:16;;;;;;;5.80;3.63;;;16.10;75.60;;;;;;5096613;28;20078;-39
2022/07/04 04:16:42;;;;;;;6.25;4.18;;;16.20;75.70;;;;;;5096700;28;20020;-39
2022/07/04 04:19:09;;;;;;;5.70;4.00;;;16.20;75.60;;;;;;5096459;28;20541;-37
2022/07/04 04:21:35;;;;;;;6.40;4.20;;;16.20;75.60;;;;;;5096161;28;20077;-39
2022/07/04 04:24:01;;;;;;;5.93;4.57;;;16.30;75.70;;;;;;5096144;28;20024;-38
2022/07/04 04:26:26;;;;;;;4.88;4.00;;;16.30;75.80;;;;;;5096052;28;20028;-39
2022/07/04 04:28:52;;;;;;;4.55;3.90;;;16.30;75.70;;;;;;5095998;28;20077;-37
2022/07/04 04:31:18;;;;;;;5.45;4.13;;;16.30;75.70;;;;;;5096242;28;20024;-39
2022/07/04 04:33:43;;;;;;;6.70;3.90;;;16.40;75.70;;;;;;5096283;28;20375;-37
2022/07/04 04:36:09;;;;;;;5.03;3.67;;;16.40;75.60;;;;;;5095908;28;20144;-38
2022/07/04 04:38:34;;;;;;;4.10;3.70;;;16.40;75.50;;;;;;5095960;28;20052;-38
2022/07/04 04:41:00;;;;;;;5.40;3.47;;;16.40;75.50;;;;;;5094492;28;20135;-38
2022/07/04 04:43:26;;;;;;;7.60;3.42;;;16.50;75.50;;;;;;5096042;28;20109;-38
2022/07/04 04:45:52;;;;;;;5.38;3.50;;;16.50;75.40;;;;;;5095660;28;20031;-40
2022/07/04 04:48:17;;;;;;;2.78;2.50;;;16.60;75.40;;;;;;5095966;28;20016;-39
2022/07/04 04:50:43;;;;;;;6.28;3.70;;;16.50;75.30;;;;;;5095643;28;20118;-40
2022/07/04 04:53:08;;;;;;;5.57;3.38;;;16.60;75.20;;;;;;5095351;28;20028;-40
2022/07/04 04:55:34;;;;;;;5.15;3.25;;;16.70;75.20;;;;;;5095678;28;20024;-46
2022/07/04 04:57:59;;;;;;;4.13;2.80;;;16.70;75.10;;;;;;5095535;28;20031;-39
2022/07/04 05:00:25;;;;;;;4.97;3.20;;;16.70;75.10;;;;;;5095516;28;20028;-40
2022/07/04 05:02:51;;;;;;;5.65;3.10;;;16.70;75.10;;;;;;5095465;28;20039;-40
2022/07/04 05:05:17;;;;;;;6.28;3.17;;;16.70;75.10;;;;;;5093841;28;20092;-40
2022/07/04 05:07:43;;;;;;;4.90;3.15;;;16.70;75.10;;;;;;5095660;28;20111;-40
2022/07/04 05:10:09;;;;;;;6.50;3.15;;;16.70;75.10;;;;;;5095285;28;20043;-43
2022/07/04 05:12:35;;;;;;;4.28;2.97;;;16.70;75.10;;;;;;5095496;28;20031;-40
2022/07/04 05:15:00;;;;;;;5.25;2.95;;;16.70;75.10;;;;;;5095191;28;20417;-45
2022/07/04 05:17:26;;;;;;;4.72;2.50;;;16.80;75.10;;;;;;5095683;28;20031;-40
2022/07/04 05:19:51;;;;;;;8.32;3.00;;;16.80;75.10;;;;;;5095446;28;20490;-40
2022/07/04 05:22:17;;;;;;;3.55;2.80;;;16.80;75.10;;;;;;5095329;28;20028;-42
2022/07/04 05:24:43;;;;;;;4.60;2.88;;;16.80;75.10;;;;;;5095194;28;20031;-40
2022/07/04 05:27:09;;;;;;;4.68;3.00;;;16.80;75.00;;;;;;5094915;28;20016;-39
2022/07/04 05:29:34;;;;;;;6.00;2.95;;;16.90;75.10;;;;;;5094952;28;20032;-40
2022/07/04 05:32:00;;;;;;;4.57;2.80;;;16.90;75.00;;;;;;5094811;28;20448;-40
2022/07/04 05:34:25;;;;;;;5.65;3.10;;;17.00;74.90;;;;;;5094747;28;20052;-39
2022/07/04 05:36:51;;;;;;;4.13;2.85;;;17.00;74.80;;;;;;5094742;28;20502;-39
2022/07/04 05:39:17;;;;;;;4.10;2.70;;;17.00;74.80;;;;;;5095064;28;20123;-38
2022/07/04 05:41:42;;;;;;;4.32;2.83;;;17.10;74.70;;;;;;5094775;28;20044;-40
2022/07/04 05:44:08;;;;;;;4.88;2.72;;;17.10;74.70;;;;;;5094736;28;20025;-40
2022/07/04 05:46:34;;;;;;;4.93;3.00;;;17.10;74.70;;;;;;5094816;28;20051;-40
2022/07/04 05:48:59;;;;;;;4.50;3.03;;;17.20;74.70;;;;;;5094690;28;20493;-42
2022/07/04 05:51:25;;;;;;;5.07;3.05;;;17.20;74.70;;;;;;5094670;28;20028;-40
2022/07/04 05:53:51;;;;;;;7.55;2.70;;;17.20;74.70;;;;;;5094843;28;20020;-40
2022/07/04 05:56:16;;;;;;;3.22;2.70;;;17.30;74.70;;;;;;5094656;28;20128;-41
2022/07/04 05:58:42;;;;;;;5.63;2.83;;;17.30;74.70;;;;;;5094729;28;20032;-38
2022/07/04 06:01:08;;;;;;;3.97;2.85;;;17.30;74.70;;;;;;5094581;28;20024;-38
2022/07/04 06:03:36;;;;;;;6.03;2.50;;;17.40;74.70;;;;;;5093665;28;20032;-39
2022/07/04 06:06:03;;;;;;;3.55;1.95;;;17.50;74.70;;;;;;5094025;28;20491;-47
2022/07/04 06:08:29;;;;;;;3.92;2.30;;;17.50;74.60;;;;;;5094140;28;20024;-39
2022/07/04 06:10:55;;;;;;;3.38;2.30;;;17.60;74.40;;;;;;5094165;28;20038;-37
2022/07/04 06:13:21;;;;;;;5.03;2.30;;;17.80;74.30;;;;;;5094354;28;20024;-37
2022/07/04 06:15:47;;;;;;;4.65;2.35;;;17.90;74.00;;;;;;5094297;28;20060;-37
2022/07/04 06:18:12;;;;;;;5.38;2.50;;;18.00;73.80;;;;;;5094050;28;20032;-38
2022/07/04 06:20:40;;;;;;;3.55;2.58;;;18.10;73.60;;;;;;5093963;28;20036;-40
2022/07/04 06:23:06;;;;;;;3.10;2.30;;;18.20;73.40;;;;;;5094270;28;20455;-40
2022/07/04 06:25:32;;;;;;;4.57;2.35;;;18.20;73.20;;;;;;5094180;28;20028;-40
2022/07/04 06:27:58;;;;;;;4.38;2.30;;;18.40;73.00;;;;;;5092484;28;20387;-39
2022/07/04 06:30:24;;;;;;;5.38;2.72;;;18.40;72.70;;;;;;5094251;28;20031;-40
2022/07/04 06:32:53;;;;;;;4.10;2.50;;;18.50;72.50;;;;;;5093857;28;20039;-39
2022/07/04 06:38:07;;;;;;;5.60;2.15;;;18.70;72.10;;;;;;5093705;28;20470;-40
2022/07/04 06:40:33;;;;;;;4.93;2.45;;;18.80;71.80;;;;;;5093673;28;20035;-39
2022/07/04 06:42:59;;;;;;;5.53;2.50;;;18.90;71.40;;;;;;5093683;28;20148;-38
2022/07/04 06:45:25;;;;;;;4.45;2.80;;;19.00;71.10;;;;;;5093532;28;20067;-39
2022/07/04 06:47:50;;;;;;;3.80;2.30;;;19.00;70.80;;;;;;5093647;28;20383;-39
2022/07/04 06:50:17;;;;;;;3.83;2.80;;;19.10;70.70;;;;;;5093503;28;20035;-40
2022/07/04 06:52:43;;;;;;;5.70;2.80;;;19.20;70.50;;;;;;5093679;28;20024;-40
2022/07/04 06:55:09;;;;;;;4.30;2.90;;;19.20;70.30;;;;;;5093430;28;20039;-39
2022/07/04 06:57:34;;;;;;;4.18;2.50;;;19.30;70.00;;;;;;5093670;28;20383;-43
2022/07/04 07:00:00;;;;;;;6.53;2.58;;;19.30;69.90;;;;;;5093576;28;20128;-39
2022/07/04 07:02:26;;;;;;;4.72;2.63;;;19.40;70.40;;;;;;5093372;28;20059;-45
2022/07/04 07:04:55;;;;;;;5.18;2.55;;;19.40;69.60;;;;;;5093303;28;20024;-40
2022/07/04 07:07:20;;;;;;;4.28;2.70;;;19.30;69.60;;;;;;5093517;28;20027;-40
2022/07/04 07:09:46;;;;;;;5.80;2.60;;;19.30;69.80;;;;;;5093291;28;20027;-40
2022/07/04 07:12:11;;;;;;;5.90;2.80;;;19.30;69.90;;;;;;5093418;28;20027;-40
2022/07/04 07:14:37;;;;;;;5.22;2.67;;;19.30;69.80;;;;;;5093111;28;20031;-40
2022/07/04 07:17:03;;;;;;;6.65;2.78;;;19.50;69.60;;;;;;5092954;28;20028;-40
2022/07/04 07:19:28;;;;;;;7.47;2.78;;;19.60;69.40;;;;;;5092220;28;20024;-40
2022/07/04 07:21:54;;;;;;;4.80;2.80;;;19.70;69.20;;;;;;5091768;28;20032;-40
2022/07/04 07:24:20;;;;;;;7.20;3.05;;;19.70;69.10;;;;;;5093537;28;20035;-44
2022/07/04 07:26:46;;;;;;;4.25;2.63;;;19.70;69.00;;;;;;5093345;28;20028;-39
2022/07/04 07:29:11;;;;;;;5.72;2.63;;;19.80;68.90;;;;;;5093086;28;20034;-40
2022/07/04 07:31:37;;;;;;;5.88;3.10;;;19.90;68.90;;;;;;5092988;28;20070;-40
2022/07/04 07:34:02;;;;;;;4.35;2.65;;;20.00;68.80;;;;;;5093163;28;20103;-40
2022/07/04 07:36:28;;;;;;;8.48;3.05;;;20.10;68.70;;;;;;5093360;28;20517;-40
2022/07/04 07:38:55;;;;;;;6.45;3.00;;;20.10;68.70;;;;;;5092846;28;20036;-38
2022/07/04 07:41:21;;;;;;;7.07;3.20;;;20.20;68.60;;;;;;5092955;28;20127;-41
2022/07/04 07:43:47;;;;;;;5.97;2.92;;;20.20;68.50;;;;;;5092794;28;20062;-40
2022/07/04 07:46:12;;;;;;;8.13;2.95;;;20.30;68.50;;;;;;5093178;28;20036;-41
2022/07/04 07:48:38;;;;;;;5.75;2.88;;;20.20;68.50;;;;;;5093036;28;20024;-40
2022/07/04 07:51:04;;;;;;;6.70;2.80;;;20.20;68.60;;;;;;5092889;28;20039;-39
2022/07/04 07:53:29;;;;;;;4.30;2.50;;;20.10;68.70;;;;;;5093031;28;20121;-40
2022/07/04 07:55:55;;;;;;;5.22;3.00;;;20.10;68.70;;;;;;5092752;28;20052;-41
2022/07/04 07:58:21;;;;;;;6.90;2.92;;;20.20;68.80;;;;;;5091580;28;20032;-40
2022/07/04 08:00:47;;;;;;;5.50;3.05;;;20.20;68.80;;;;;;5091329;28;20038;-41
2022/07/04 08:05:57;;;;;;;5.15;2.90;;;20.10;68.80;;;;;;5092697;28;20039;-40
2022/07/04 08:08:23;;;;;;;4.68;3.00;;;20.20;68.90;;;;;;5092607;28;20032;-42
2022/07/04 08:10:50;;;;;;;4.70;2.90;;;20.30;68.80;;;;;;5092864;28;20437;-42
2022/07/04 08:13:15;;;;;;;4.78;2.97;;;20.40;68.70;;;;;;5092827;28;20478;-42
2022/07/04 08:15:41;;;;;;;6.70;3.20;;;20.50;68.50;;;;;;5092592;28;20030;-42
2022/07/04 08:18:07;;;;;;;4.38;2.83;;;20.60;68.40;;;;;;5092849;28;20026;-41
2022/07/04 08:20:32;;;;;;;5.40;3.20;;;20.80;68.20;;;;;;5093182;28;20111;-40
2022/07/04 08:22:58;;;;;;;4.53;3.13;;;21.00;67.80;;;;;;5092370;28;20028;-40
2022/07/04 08:25:24;;;;;;;8.90;4.28;;;21.10;67.60;;;;;;5092791;28;20039;-41
2022/07/04 08:27:49;;;;;;;7.40;3.53;;;21.00;67.40;;;;;;5095447;28;20154;-40
2022/07/04 08:30:15;;;;;;;7.78;3.47;;;21.00;67.50;;;;;;5096375;28;20447;-40
2022/07/04 08:32:41;;;;;;;6.05;3.60;;;21.00;67.70;;;;;;5095141;28;20028;-41
2022/07/04 08:35:07;;;;;;;10.30;4.43;;;21.00;67.60;;;;;;5096204;28;20043;-40
2022/07/04 08:37:33;;;;;;;6.32;4.00;;;21.10;67.50;;;;;;5096255;28;20028;-41
2022/07/04 08:39:58;;;;;;;6.60;4.30;;;21.10;67.50;;;;;;5096247;28;20032;-39
2022/07/04 08:42:24;;;;;;;9.27;4.30;;;21.20;67.40;;;;;;5095821;28;20055;-40
2022/07/04 08:44:52;;;;;;;9.00;4.50;;;21.20;67.20;;;;;;5096111;28;20069;-40
2022/07/04 08:47:21;;;;;;;9.75;4.15;;;21.30;67.20;;;;;;5095986;28;20029;-40
2022/07/04 08:50:06;;;;;;;6.75;3.75;;;21.30;67.10;;;;;;5095979;28;20111;-43
2022/07/04 08:52:41;;;;;;;8.10;4.05;;;21.30;67.00;;;;;;5096160;28;20050;-42
2022/07/04 09:00:39;;;;;;;5.32;3.15;;;21.30;67.10;;;;;;5095952;28;20606;-42
2022/07/04 09:03:06;;;;;;;7.13;3.65;;;21.30;67.20;;;;;;5095703;28;20480;-42
2022/07/04 09:05:32;;;;;;;7.28;3.35;;;21.30;67.20;;;;;;5095668;28;20119;-43
2022/07/04 09:07:59;;;;;;;9.90;3.60;;;21.30;67.20;;;;;;5095848;28;20044;-42
2022/07/04 09:10:25;;;;;;;5.80;3.97;;;21.40;67.20;;;;;;5095689;28;20028;-41
2022/07/04 09:12:51;;;;;;;5.93;3.85;;;21.40;67.30;;;;;;5095876;28;20028;-41
2022/07/04 09:15:17;;;;;;;8.50;3.90;;;21.40;67.40;;;;;;5095890;28;20117;-42
2022/07/04 09:17:43;;;;;;;5.22;3.40;;;21.30;67.50;;;;;;5095441;28;20099;-42
2022/07/04 09:20:19;;;;;;;8.05;3.20;;;21.30;67.40;;;;;;5095413;28;20070;-41
2022/07/04 09:22:45;;;;;;;6.03;3.22;;;21.40;67.50;;;;;;5095604;28;20068;-41
2022/07/04 09:25:14;;;;;;;5.88;3.20;;;21.50;67.30;;;;;;5095433;28;20039;-42
2022/07/04 09:27:51;;;;;;;8.07;4.30;;;21.60;67.00;;;;;;5095358;28;20028;-42
2022/07/04 09:30:25;;;;;;;5.47;3.30;;;21.60;66.10;;;;;;5095139;28;20030;-42
2022/07/04 09:33:00;;;;;;;5.93;3.63;;;21.50;66.30;;;;;;5094370;28;20483;-42
2022/07/04 09:35:28;;;;;;;10.13;4.20;;;21.50;66.30;;;;;;5093803;28;20050;-42
2022/07/04 09:37:59;;;;;;;7.53;4.25;;;21.40;66.20;;;;;;5094278;28;20024;-41
2022/07/04 09:40:27;;;;;;;7.97;3.97;;;21.40;66.40;;;;;;5094845;28;20056;-39
2022/07/04 09:42:54;;;;;;;7.00;4.03;;;21.30;66.60;;;;;;5093644;28;20031;-39
2022/07/04 09:45:23;;;;;;;7.38;3.97;;;21.20;66.80;;;;;;5094989;28;20036;-42
2022/07/04 09:47:50;;;;;;;7.97;4.43;;;21.10;67.00;;;;;;5095054;28;20024;-42
2022/07/04 09:50:20;;;;;;;6.10;4.30;;;21.10;67.10;;;;;;5095439;28;20030;-42
2022/07/04 09:52:55;;;;;;;8.27;4.20;;;21.00;67.30;;;;;;5094681;28;20020;-41
2022/07/04 09:55:31;;;;;;;7.82;3.58;;;21.10;67.50;;;;;;5094637;28;20035;-42
2022/07/04 09:58:05;;;;;;;6.40;3.10;;;21.10;67.40;;;;;;5094495;28;20048;-41
2022/07/04 10:00:35;;;;;;;8.32;3.20;;;21.10;67.20;;;;;;5094852;28;20526;-42
2022/07/04 10:03:21;;;;;;;5.07;2.53;;;21.20;67.00;;;;;;5094508;28;20123;-41
2022/07/04 10:06:00;;;;;;;6.65;2.40;;;21.40;66.70;;;;;;5094481;28;20085;-41
2022/07/04 10:08:26;;;;;;;6.32;2.42;;;21.50;66.30;;;;;;5094420;28;20085;-41
2022/07/04 10:10:59;;;;;;;4.13;2.40;;;21.50;65.50;;;;;;5094460;28;20028;-41
2022/07/04 10:13:25;;;;;;;5.05;2.47;;;21.60;65.00;;;;;;5094217;28;20198;-40
2022/07/04 10:15:51;;;;;;;3.70;2.20;;;21.70;64.60;;;;;;5094220;28;20028;-41
2022/07/04 10:18:19;;;;;;;5.10;1.98;;;21.80;64.20;;;;;;5094372;28;20482;-40
2022/07/04 10:20:46;;;;;;;2.85;1.48;;;21.90;64.20;;;;;;5094299;28;20395;-42
2022/07/04 10:23:12;;;;;;;6.45;1.80;;;22.00;63.40;;;;;;5094333;28;20035;-42
2022/07/04 10:25:39;;;;;;;4.05;1.50;;;22.10;63.00;;;;;;5094149;28;20028;-42
2022/07/04 10:28:05;;;;;;;4.60;1.50;;;22.20;62.40;;;;;;5094228;28;20020;-42
2022/07/04 10:30:37;;;;;;;4.10;1.65;;;22.30;62.10;;;;;;5094021;28;20368;-42
2022/07/04 10:33:04;;;;;;;3.70;1.45;;;22.40;61.70;;;;;;5094000;28;20124;-41
2022/07/04 10:35:49;;;;;;;5.03;1.67;;;22.60;61.40;;;;;;5093878;28;20098;-43
2022/07/04 10:38:16;;;;;;;5.57;1.48;;;22.70;60.70;;;;;;5093917;28;20060;-43
2022/07/04 10:40:54;;;;;;;2.15;1.30;;;22.70;60.00;;;;;;5094429;28;20107;-41
2022/07/04 10:43:38;;;;;;;4.53;1.52;;;22.80;59.60;;;;;;5093244;28;20040;-42
2022/07/04 10:46:15;;;;;;;6.38;1.50;;;22.80;58.60;;;;;;5093771;28;20162;-32
2022/07/04 10:48:53;;;;;;;2.90;1.48;;;22.80;58.10;;;;;;5093715;28;20032;-36
2022/07/04 10:51:35;;;;;;;2.97;1.60;;;22.60;58.10;;;;;;5093499;28;20039;-32
2022/07/04 10:54:05;;;;;;;5.15;1.80;;;22.50;58.40;;;;;;5093515;28;20028;-31
2022/07/04 10:56:59;;;;;;;2.40;1.42;;;22.40;58.60;;;;;;5093812;28;20047;-33
2022/07/04 10:59:27;;;;;;;5.53;1.65;;;22.40;59.00;;;;;;5088751;28;20079;-32
2022/07/04 11:02:13;;;;;;;3.97;1.50;;;22.30;59.10;;;;;;5093454;28;20451;-34
2022/07/04 11:04:52;;;;;;;3.75;1.40;;;22.30;59.20;;;;;;5089473;28;20040;-31
2022/07/04 11:07:20;;;;;;;1.98;1.05;;;22.30;59.20;;;;;;5093339;28;20076;-36
2022/07/04 11:09:47;;;;;;;4.00;1.23;;;22.40;59.30;;;;;;5093320;28;20020;-31
2022/07/04 11:12:14;;;;;;;2.33;0.98;;;22.40;58.90;;;;;;5093483;28;20051;-31
2022/07/04 11:14:44;;;;;;;1.38;1.13;;;22.40;58.40;;;;;;5093372;28;20095;-32
2022/07/04 11:17:11;;;;;;;2.17;1.30;;;22.50;58.40;;;;;;5093256;28;20039;-33
2022/07/04 11:19:37;;;;;;;3.55;1.40;;;22.50;58.30;;;;;;5093681;28;20593;-31
2022/07/04 11:22:08;;;;;;;2.38;1.10;;;22.40;58.00;;;;;;5091932;28;20103;-32
2022/07/04 11:24:34;;;;;;;3.00;1.45;;;22.40;58.10;;;;;;5091817;28;20161;-33
2022/07/04 11:27:00;;;;;;;2.28;1.00;;;22.30;57.80;;;;;;5093066;28;20519;-35
2022/07/04 11:29:27;;;;;;;2.10;1.30;;;22.30;57.90;;;;;;5093101;28;20024;-37
2022/07/04 11:31:52;;;;;;;4.10;1.30;;;22.30;57.60;;;;;;5092930;28;20081;-33
2022/07/04 11:34:19;;;;;;;3.53;1.00;;;22.40;57.80;;;;;;5093041;28;20031;-32
2022/07/04 11:36:47;;;;;;;2.22;1.35;;;22.50;58.00;;;;;;5093038;28;20468;-31
2022/07/04 11:39:20;;;;;;;1.67;0.93;;;22.60;57.90;;;;;;5093034;28;20020;-33
2022/07/04 11:47:35;;;;;;;2.60;1.10;;;23.20;56.60;;;;;;5093426;28;20116;-31
2022/07/04 11:50:03;;;;;;;3.85;1.20;;;23.20;56.40;;;;;;5093003;28;20598;-31
2022/07/04 11:52:39;;;;;;;2.33;1.00;;;23.10;56.50;;;;;;5092511;28;20040;-34
2022/07/04 11:55:07;;;;;;;3.25;1.20;;;23.20;56.60;;;;;;5092998;28;20411;-31
2022/07/04 11:57:38;;;;;;;2.28;1.10;;;23.20;56.20;;;;;;5093228;28;20496;-32
2022/07/04 12:00:08;;;;;;;1.92;1.10;;;23.30;56.00;;;;;;5092839;28;20032;-32
2022/07/04 12:02:35;;;;;;;7.93;1.40;;;23.30;55.40;;;;;;5095572;28;20040;-32
2022/07/04 12:05:03;;;;;;;2.70;1.40;;;23.40;55.40;;;;;;5096655;28;20024;-48
2022/07/04 12:07:32;;;;;;;2.35;1.25;;;23.50;55.20;;;;;;5096941;28;20031;-38
2022/07/04 12:10:23;;;;;;;4.30;1.38;;;23.50;54.90;;;;;;5096940;28;20020;-39
2022/07/04 12:12:57;;;;;;;3.17;1.10;;;23.60;55.00;;;;;;5096591;28;20128;-44
2022/07/04 12:15:24;;;;;;;5.88;1.65;;;23.80;54.70;;;;;;5096798;28;20510;-45
2022/07/04 12:17:53;;;;;;;1.75;1.20;;;23.90;53.70;;;;;;5096458;28;20506;-40
2022/07/04 12:20:18;;;;;;;4.13;1.50;;;23.90;53.90;;;;;;5096710;28;20028;-39
2022/07/04 12:22:50;;;;;;;1.88;1.10;;;24.10;53.80;;;;;;5096631;28;20027;-40
2022/07/04 12:25:23;;;;;;;1.92;1.00;;;24.20;53.50;;;;;;5094983;28;20039;-40
2022/07/04 12:27:54;;;;;;;2.80;1.05;;;24.20;53.10;;;;;;5096418;28;20035;-40
2022/07/04 12:30:21;;;;;;;2.65;1.40;;;24.20;52.60;;;;;;5096462;28;20042;-41
2022/07/04 12:32:49;;;;;;;2.70;1.30;;;24.40;52.40;;;;;;5096291;28;20107;-40
2022/07/04 12:35:34;;;;;;;3.90;1.23;;;24.50;51.90;;;;;;5096045;28;20032;-40
2022/07/04 12:38:13;;;;;;;2.88;1.30;;;24.40;51.50;;;;;;5096206;28;20111;-39
2022/07/04 12:40:54;;;;;;;5.00;1.20;;;24.30;50.90;;;;;;5095894;28;20024;-39
2022/07/04 12:43:22;;;;;;;2.97;1.40;;;24.30;51.50;;;;;;5096229;28;20107;-40
2022/07/04 12:45:55;;;;;;;3.08;1.05;;;24.30;51.30;;;;;;5096099;28;20127;-40
2022/07/04 12:48:25;;;;;;;1.88;1.25;;;24.30;51.20;;;;;;5096123;28;20379;-39
2022/07/04 12:50:52;;;;;;;3.67;1.00;;;24.30;51.00;;;;;;5095827;28;20476;-40
2022/07/04 12:53:18;;;;;;;2.45;1.02;;;24.40;51.10;;;;;;5096381;28;20054;-39
2022/07/04 12:55:45;;;;;;;2.47;0.88;;;24.40;50.40;;;;;;5095798;28;20535;-39
2022/07/04 12:58:12;;;;;;;2.30;1.10;;;24.50;50.00;;;;;;5095763;28;20031;-39
2022/07/04 13:00:38;;;;;;;2.05;1.20;;;24.60;48.90;;;;;;5096036;28;20539;-41
2022/07/04 13:03:04;;;;;;;0.93;0.90;;;24.60;48.50;;;;;;5095617;28;20028;-40
2022/07/04 13:05:30;;;;;;;2.05;1.20;;;24.50;48.50;;;;;;5096289;28;20460;-41
2022/07/04 13:07:56;;;;;;;2.42;1.15;;;24.60;48.40;;;;;;5095470;28;20491;-39
2022/07/04 13:10:22;;;;;;;1.80;1.00;;;24.70;48.40;;;;;;5095440;28;20020;-41
2022/07/04 13:12:47;;;;;;;1.80;1.20;;;24.80;48.60;;;;;;5095526;28;20026;-40